createdAt,value
2022-12-04T00:01:28.122Z,11.98
2022-12-04T00:03:58.643Z,12.34
2022-12-04T00:06:26.664Z,12.24
2022-12-04T00:08:55.039Z,12.17
2022-12-04T00:11:26.011Z,12.07
2022-12-04T00:14:14.726Z,12.04
2022-12-04T00:16:45.367Z,12.11
2022-12-04T00:19:18.298Z,12.05
2022-12-04T00:21:46.127Z,12.16
2022-12-04T00:24:13.602Z,12.19
2022-12-04T00:26:41.264Z,12.28
2022-12-04T00:29:08.856Z,12.46
2022-12-04T00:31:36.496Z,12.25
2022-12-04T00:34:07.977Z,12.19
2022-12-04T00:36:35.861Z,11.98
2022-12-04T00:39:04.311Z,12.24
2022-12-04T00:41:33.505Z,12.36
2022-12-04T00:44:02.671Z,12.10
2022-12-04T00:46:30.587Z,12.14
2022-12-04T00:49:01.830Z,12.15
2022-12-04T00:51:29.795Z,12.05
2022-12-04T00:53:57.360Z,11.82
2022-12-04T00:56:27.198Z,12.01
2022-12-04T00:58:57.386Z,12.25
2022-12-04T01:01:43.702Z,12.32
2022-12-04T01:04:11.392Z,12.39
2022-12-04T01:06:39.033Z,12.46
2022-12-04T01:09:06.725Z,12.48
2022-12-04T01:11:34.417Z,12.45
2022-12-04T01:14:02.067Z,12.39
2022-12-04T01:16:33.494Z,12.53
2022-12-04T01:19:01.777Z,12.56
2022-12-04T01:21:29.328Z,12.46
2022-12-04T01:23:58.876Z,12.38
2022-12-04T01:26:27.385Z,12.57
2022-12-04T01:28:54.973Z,12.67
2022-12-04T01:31:23.691Z,12.50
2022-12-04T01:33:51.841Z,12.59
2022-12-04T01:36:23.530Z,12.62
2022-12-04T01:38:51.571Z,12.75
2022-12-04T01:41:23.201Z,12.66
2022-12-04T01:44:14.885Z,12.70
2022-12-04T01:46:45.897Z,12.70
2022-12-04T01:49:19.585Z,12.70
2022-12-04T01:51:51.830Z,12.89
2022-12-04T01:54:28.575Z,12.68
2022-12-04T01:57:08.136Z,12.85
2022-12-04T01:59:42.921Z,12.88
2022-12-04T02:02:13.894Z,12.84
2022-12-04T02:04:43.054Z,13.01
2022-12-04T02:07:11.870Z,12.97
2022-12-04T02:09:41.163Z,12.93
2022-12-04T02:12:17.420Z,13.18
2022-12-04T02:15:03.713Z,12.99
2022-12-04T02:17:44.208Z,13.06
2022-12-04T02:20:27.425Z,13.04
2022-12-04T02:23:24.744Z,13.10
2022-12-04T02:26:27.256Z,13.09
2022-12-04T02:29:33.149Z,13.04
2022-12-04T02:32:11.188Z,12.69
2022-12-04T02:34:45.921Z,13.14
2022-12-04T02:37:19.110Z,13.03
2022-12-04T02:39:55.416Z,13.25
2022-12-04T02:42:45.527Z,13.35
2022-12-04T02:45:17.940Z,13.31
2022-12-04T02:47:46.872Z,13.43
2022-12-04T02:50:19.428Z,13.47
2022-12-04T02:52:54.614Z,13.46
2022-12-04T02:55:29.252Z,13.48
2022-12-04T02:58:05.202Z,13.41
2022-12-04T03:00:35.101Z,13.40
2022-12-04T03:03:18.972Z,13.46
2022-12-04T03:06:05.772Z,13.16
2022-12-04T03:08:42.459Z,13.40
2022-12-04T03:11:10.186Z,13.60
2022-12-04T03:13:53.593Z,13.43
2022-12-04T03:16:24.192Z,13.73
2022-12-04T03:18:59.322Z,13.54
2022-12-04T03:21:32.424Z,13.26
2022-12-04T03:24:10.703Z,13.36
2022-12-04T03:26:52.021Z,13.28
2022-12-04T03:29:44.915Z,13.39
2022-12-04T03:32:16.293Z,13.58
2022-12-04T03:35:02.042Z,13.53
2022-12-04T03:37:45.000Z,13.63
2022-12-04T03:40:34.524Z,13.38
2022-12-04T03:43:39.464Z,13.55
2022-12-04T03:46:06.983Z,13.35
2022-12-04T03:48:56.291Z,13.35
2022-12-04T03:51:35.580Z,13.52
2022-12-04T03:54:10.463Z,13.55
2022-12-04T03:56:45.205Z,13.55
2022-12-04T03:59:20.416Z,13.23
2022-12-04T04:01:51.419Z,13.12
2022-12-04T04:04:24.311Z,13.28
2022-12-04T04:07:00.071Z,13.20
2022-12-04T04:09:31.734Z,13.33
2022-12-04T04:12:10.703Z,13.43
2022-12-04T04:15:14.175Z,13.21
2022-12-04T04:18:03.875Z,13.19
2022-12-04T04:20:58.907Z,13.33
2022-12-04T04:23:49.845Z,13.02
2022-12-04T04:26:18.557Z,12.74
2022-12-04T04:28:46.422Z,12.88
2022-12-04T04:31:32.547Z,12.82
2022-12-04T04:34:11.346Z,12.78
2022-12-04T04:36:41.568Z,12.68
2022-12-04T04:39:33.212Z,12.61
2022-12-04T04:42:06.309Z,12.44
2022-12-04T04:44:51.755Z,12.34
2022-12-04T04:47:28.785Z,12.23
2022-12-04T04:49:58.947Z,12.50
2022-12-04T04:52:26.598Z,12.25
2022-12-04T04:54:55.519Z,12.38
2022-12-04T04:57:31.282Z,12.34
2022-12-04T04:59:58.970Z,12.27
2022-12-04T05:02:27.198Z,12.30
2022-12-04T05:04:55.631Z,12.21
2022-12-04T05:07:23.227Z,12.06
2022-12-04T05:09:50.840Z,11.79
2022-12-04T05:12:18.369Z,12.19
2022-12-04T05:14:48.394Z,11.85
2022-12-04T05:17:16.219Z,11.89
2022-12-04T05:19:59.371Z,11.82
2022-12-04T05:22:31.649Z,11.97
2022-12-04T05:25:00.318Z,12.17
2022-12-04T05:27:30.150Z,12.05
2022-12-04T05:29:58.937Z,12.20
2022-12-04T05:32:28.354Z,12.30
2022-12-04T05:34:56.959Z,12.32
2022-12-04T05:37:25.050Z,12.00
2022-12-04T05:39:52.853Z,12.14
2022-12-04T05:42:20.899Z,12.20
2022-12-04T05:44:50.184Z,12.30
2022-12-04T05:47:17.855Z,11.91
2022-12-04T05:49:45.427Z,12.15
2022-12-04T05:52:14.022Z,12.25
2022-12-04T05:54:41.576Z,12.17
2022-12-04T05:57:09.157Z,11.98
2022-12-04T05:59:36.889Z,12.01
2022-12-04T06:02:04.576Z,12.18
2022-12-04T06:04:32.275Z,11.96
2022-12-04T06:06:59.839Z,12.11
2022-12-04T06:09:27.563Z,11.98
2022-12-04T06:11:57.981Z,12.07
2022-12-04T06:14:26.003Z,12.32
2022-12-04T06:16:53.691Z,12.05
2022-12-04T06:19:22.530Z,11.70
2022-12-04T06:21:52.645Z,11.97
2022-12-04T06:24:24.739Z,12.14
2022-12-04T06:27:26.103Z,12.04
2022-12-04T06:29:45.312Z,12.07
2022-12-04T06:32:16.515Z,12.12
2022-12-04T06:34:53.306Z,12.30
2022-12-04T06:37:23.442Z,12.14
2022-12-04T06:39:51.308Z,12.04
2022-12-04T06:42:18.949Z,12.18
2022-12-04T06:44:46.562Z,12.02
2022-12-04T06:47:14.239Z,11.95
2022-12-04T06:49:42.394Z,11.80
2022-12-04T06:52:09.906Z,11.99
2022-12-04T06:54:37.480Z,11.94
2022-12-04T06:57:05.082Z,12.00
2022-12-04T06:59:33.984Z,11.98
2022-12-04T07:02:01.534Z,11.88
2022-12-04T07:04:29.223Z,12.13
2022-12-04T07:06:56.842Z,12.30
2022-12-04T07:09:24.536Z,12.13
2022-12-04T07:11:53.115Z,12.11
2022-12-04T07:14:20.948Z,11.95
2022-12-04T07:16:48.716Z,12.08
2022-12-04T07:19:16.428Z,12.20
2022-12-04T07:21:44.020Z,12.37
2022-12-04T07:24:17.137Z,12.29
2022-12-04T07:26:44.993Z,12.59
2022-12-04T07:29:12.603Z,12.67
2022-12-04T07:31:40.422Z,12.63
2022-12-04T07:34:08.066Z,12.81
2022-12-04T07:36:35.676Z,12.78
2022-12-04T07:39:03.400Z,12.40
2022-12-04T07:41:30.905Z,12.41
2022-12-04T07:44:00.294Z,12.66
2022-12-04T07:46:29.041Z,12.44
2022-12-04T07:48:58.282Z,11.94
2022-12-04T07:51:28.637Z,12.12
2022-12-04T07:54:02.652Z,11.95
2022-12-04T07:56:32.653Z,11.79
2022-12-04T07:59:00.715Z,11.53
2022-12-04T08:01:28.692Z,11.39
2022-12-04T08:03:58.277Z,11.35
2022-12-04T08:06:27.595Z,11.41
2022-12-04T08:08:55.487Z,11.58
2022-12-04T08:11:25.197Z,11.35
2022-12-04T08:14:09.081Z,11.32
2022-12-04T08:17:13.939Z,11.46
2022-12-04T08:24:07.281Z,11.46
2022-12-04T08:27:50.223Z,11.60
2022-12-04T08:31:06.872Z,11.39
2022-12-04T08:33:37.229Z,11.07
2022-12-04T08:36:10.774Z,10.89
2022-12-04T08:48:04.228Z,11.23
2022-12-04T08:51:15.574Z,11.27
2022-12-04T08:53:46.297Z,11.33
2022-12-04T08:56:14.300Z,11.25
2022-12-04T08:58:41.824Z,11.47
2022-12-04T09:01:12.540Z,11.40
2022-12-04T09:03:40.999Z,11.38
2022-12-04T09:06:10.808Z,11.35
2022-12-04T09:08:38.474Z,11.43
2022-12-04T09:11:10.561Z,11.31
2022-12-04T09:13:39.154Z,11.18
2022-12-04T09:16:09.028Z,11.22
2022-12-04T09:18:38.566Z,11.43
2022-12-04T09:21:09.289Z,11.65
2022-12-04T09:23:38.541Z,11.69
2022-12-04T09:26:16.241Z,11.65
2022-12-04T09:28:43.795Z,11.76
2022-12-04T09:31:11.622Z,11.66
2022-12-04T09:33:39.602Z,11.67
2022-12-04T09:36:07.531Z,11.67
2022-12-04T09:39:17.342Z,11.64
2022-12-04T09:42:43.517Z,11.31
2022-12-04T09:45:56.382Z,11.64
2022-12-04T09:54:42.228Z,11.72
2022-12-04T10:49:20.749Z,11.03
2022-12-04T10:52:51.353Z,11.30
2022-12-04T11:03:27.541Z,11.40
2022-12-04T11:06:08.819Z,11.47
2022-12-04T11:08:44.945Z,11.43
2022-12-04T11:11:15.094Z,11.65
2022-12-04T11:13:42.988Z,11.54
2022-12-04T11:16:34.304Z,11.72
2022-12-04T11:19:01.850Z,11.83
2022-12-04T11:21:32.417Z,11.75
2022-12-04T11:24:00.055Z,11.83
2022-12-04T11:26:37.203Z,11.28
2022-12-04T11:29:06.168Z,11.87
2022-12-04T11:31:34.889Z,11.92
2022-12-04T11:34:06.971Z,12.30
2022-12-04T11:36:42.168Z,12.30
2022-12-04T11:39:34.833Z,11.98
2022-12-04T11:42:17.112Z,11.99
2022-12-04T11:45:21.392Z,12.22
2022-12-04T11:47:59.417Z,12.47
2022-12-04T11:50:39.034Z,12.38
2022-12-04T11:53:29.988Z,12.22
2022-12-04T11:56:18.230Z,12.21
2022-12-04T11:59:08.334Z,12.18
2022-12-04T12:02:21.322Z,12.21
2022-12-04T12:05:15.878Z,12.45
2022-12-04T12:08:03.123Z,12.08
2022-12-04T12:10:49.564Z,12.15
2022-12-04T12:17:15.120Z,11.83
2022-12-04T12:20:06.399Z,11.87
2022-12-04T12:23:07.195Z,12.26
2022-12-04T12:25:54.299Z,12.19
2022-12-04T12:28:50.898Z,12.08
2022-12-04T12:31:36.889Z,12.22
2022-12-04T12:34:12.046Z,12.45
2022-12-04T12:36:45.654Z,12.47
2022-12-04T12:39:19.278Z,12.11
2022-12-04T12:41:55.838Z,12.33
2022-12-04T12:44:43.904Z,12.27
2022-12-04T12:47:19.620Z,12.30
2022-12-04T12:49:58.346Z,12.18
2022-12-04T12:52:34.951Z,12.20
2022-12-04T12:55:15.296Z,12.23
2022-12-04T12:57:47.810Z,12.43
2022-12-04T13:00:18.694Z,12.26
2022-12-04T13:03:19.226Z,12.34
2022-12-04T13:06:19.343Z,12.57
2022-12-04T13:09:25.602Z,12.45
2022-12-04T13:12:06.576Z,12.36
2022-12-04T13:14:34.216Z,12.48
2022-12-04T13:17:22.530Z,12.38
2022-12-04T13:19:56.802Z,12.65
2022-12-04T13:23:12.617Z,13.09
2022-12-04T13:26:14.360Z,13.14
2022-12-04T13:28:58.010Z,13.09
2022-12-04T13:31:49.462Z,13.44
2022-12-04T13:34:56.190Z,13.11
2022-12-04T13:37:47.732Z,12.77
2022-12-04T13:40:27.512Z,12.44
2022-12-04T13:43:18.052Z,12.38
2022-12-04T13:45:47.469Z,12.49
2022-12-04T13:48:33.833Z,12.64
2022-12-04T13:51:23.415Z,12.65
2022-12-04T13:54:13.476Z,12.53
2022-12-04T13:56:44.322Z,12.66
2022-12-04T13:59:31.072Z,12.30
2022-12-04T14:02:07.792Z,12.34
2022-12-04T14:04:46.218Z,12.71
2022-12-04T14:07:26.570Z,12.62
2022-12-04T14:09:57.183Z,12.67
2022-12-04T14:12:38.861Z,12.64
2022-12-04T14:15:28.471Z,12.17
2022-12-04T14:18:02.967Z,11.93
2022-12-04T14:20:34.942Z,12.43
2022-12-04T14:23:10.191Z,12.83
2022-12-04T14:25:40.901Z,12.68
2022-12-04T14:28:38.652Z,12.68
2022-12-04T14:31:33.347Z,12.37
2022-12-04T14:34:27.265Z,12.25
2022-12-04T14:36:57.159Z,12.41
2022-12-04T14:39:41.069Z,12.68
2022-12-04T14:42:37.919Z,12.61
2022-12-04T14:45:20.610Z,12.56
2022-12-04T14:48:14.572Z,12.47
2022-12-04T14:50:50.716Z,12.63
2022-12-04T14:53:46.220Z,12.87
2022-12-04T14:57:06.868Z,12.83
2022-12-04T14:59:44.233Z,12.65
2022-12-04T15:02:20.048Z,12.60
2022-12-04T15:04:50.574Z,12.31
2022-12-04T15:07:25.302Z,12.18
2022-12-04T15:10:17.635Z,12.34
2022-12-04T15:13:00.036Z,12.31
2022-12-04T15:15:30.329Z,12.30
2022-12-04T15:18:13.322Z,11.82
2022-12-04T15:20:44.638Z,12.24
2022-12-04T15:23:16.708Z,12.25
2022-12-04T15:25:47.213Z,12.23
2022-12-04T15:28:26.547Z,11.90
2022-12-04T15:30:56.839Z,11.75
2022-12-04T15:33:30.146Z,11.69
2022-12-04T15:36:05.930Z,11.84
2022-12-04T15:38:34.947Z,11.93
2022-12-04T15:41:27.569Z,11.67
2022-12-04T15:43:55.371Z,11.79
2022-12-04T15:46:36.177Z,11.87
2022-12-04T15:49:17.163Z,12.00
2022-12-04T15:51:47.587Z,11.44
2022-12-04T15:54:26.291Z,11.76
2022-12-04T15:57:07.496Z,11.76
2022-12-04T15:59:36.873Z,11.65
2022-12-04T16:02:21.809Z,11.88
2022-12-04T16:04:51.742Z,12.03
2022-12-04T16:07:30.211Z,11.12
2022-12-04T16:13:30.324Z,11.90
2022-12-04T16:16:01.132Z,12.12
2022-12-04T16:18:30.017Z,11.80
2022-12-04T16:20:57.811Z,11.74
2022-12-04T16:23:27.241Z,11.90
2022-12-04T16:25:55.007Z,12.02
2022-12-04T16:28:22.595Z,11.95
2022-12-04T16:30:55.286Z,11.93
2022-12-04T16:33:23.099Z,11.99
2022-12-04T16:35:50.736Z,11.79
2022-12-04T16:38:18.319Z,11.88
2022-12-04T16:40:50.831Z,11.53
2022-12-04T16:43:18.499Z,11.25
2022-12-04T16:45:54.436Z,11.55
2022-12-04T16:48:22.038Z,11.63
2022-12-04T16:50:49.765Z,11.66
2022-12-04T16:53:22.220Z,11.41
2022-12-04T16:55:51.103Z,11.74
2022-12-04T16:58:20.229Z,11.87
2022-12-04T17:00:56.335Z,11.86
2022-12-04T17:03:27.423Z,11.90
2022-12-04T17:05:55.927Z,12.07
2022-12-04T17:08:24.356Z,12.00
2022-12-04T17:10:52.778Z,11.89
2022-12-04T17:13:21.522Z,11.85
2022-12-04T17:15:49.324Z,11.94
2022-12-04T17:18:21.254Z,11.64
2022-12-04T17:20:49.542Z,11.79
2022-12-04T17:23:17.332Z,11.86
2022-12-04T17:25:44.994Z,11.95
2022-12-04T17:28:12.958Z,11.89
2022-12-04T17:30:45.224Z,11.63
2022-12-04T17:33:13.159Z,11.33
2022-12-04T17:35:42.818Z,11.30
2022-12-04T17:38:10.816Z,11.50
2022-12-04T17:40:38.355Z,11.71
2022-12-04T17:43:06.046Z,11.07
2022-12-04T17:45:35.663Z,11.08
2022-12-04T17:48:03.410Z,11.16
2022-12-04T17:50:32.031Z,11.33
2022-12-04T17:52:59.579Z,11.45
2022-12-04T17:55:27.277Z,11.21
2022-12-04T17:57:55.164Z,11.18
2022-12-04T18:00:23.759Z,11.20
2022-12-04T18:02:54.744Z,10.95
2022-12-04T18:05:22.735Z,11.33
2022-12-04T18:07:51.462Z,11.39
2022-12-04T18:10:22.780Z,11.27
2022-12-04T18:12:52.245Z,11.42
2022-12-04T18:15:20.078Z,11.36
2022-12-04T18:17:47.880Z,11.25
2022-12-04T18:20:15.500Z,11.44
2022-12-04T18:22:43.373Z,11.50
2022-12-04T18:25:12.050Z,11.45
2022-12-04T18:27:41.987Z,11.25
2022-12-04T18:30:11.007Z,11.20
2022-12-04T18:32:38.778Z,11.07
2022-12-04T18:35:06.672Z,11.07
2022-12-04T18:37:36.110Z,11.06
2022-12-04T18:40:07.294Z,10.98
2022-12-04T18:42:35.196Z,10.84
2022-12-04T18:45:02.762Z,10.96
2022-12-04T18:47:30.913Z,10.56
2022-12-04T18:49:58.954Z,10.99
2022-12-04T18:52:26.613Z,11.12
2022-12-04T18:54:54.143Z,10.98
2022-12-04T18:57:23.925Z,10.90
2022-12-04T18:59:51.542Z,11.14
2022-12-04T19:02:19.204Z,11.36
2022-12-04T19:04:46.847Z,11.09
2022-12-04T19:07:14.456Z,11.09
2022-12-04T19:10:10.068Z,11.03
2022-12-04T19:12:29.709Z,11.30
2022-12-04T19:14:57.299Z,11.19
2022-12-04T19:17:25.026Z,11.21
2022-12-04T19:19:55.269Z,11.24
2022-12-04T19:22:23.140Z,11.65
2022-12-04T19:24:51.723Z,11.77
2022-12-04T19:27:19.467Z,11.60
2022-12-04T19:29:47.900Z,11.62
2022-12-04T19:36:16.851Z,11.39
2022-12-04T19:39:30.162Z,10.93
2022-12-04T19:44:01.014Z,11.07
2022-12-04T19:55:15.608Z,10.63
2022-12-04T20:13:42.300Z,11.16
2022-12-04T20:17:45.380Z,10.91
2022-12-04T20:20:48.945Z,11.04
2022-12-04T20:23:19.702Z,11.00
2022-12-04T20:25:47.736Z,11.28
2022-12-04T20:32:14.115Z,10.81
2022-12-04T20:34:43.902Z,10.75
2022-12-04T20:37:33.365Z,11.09
2022-12-04T20:54:00.147Z,11.24
2022-12-04T21:27:50.817Z,11.16
2022-12-04T21:30:27.693Z,11.23
2022-12-04T21:38:49.645Z,11.37
2022-12-04T21:41:03.100Z,11.00
2022-12-04T21:44:06.963Z,10.32
2022-12-04T21:47:28.688Z,10.76
2022-12-04T21:50:25.442Z,10.56
2022-12-04T21:53:11.099Z,10.47
2022-12-04T21:55:54.605Z,10.63
2022-12-04T22:02:40.398Z,10.82
2022-12-04T22:12:33.303Z,11.13
2022-12-04T22:15:24.227Z,11.23
2022-12-04T22:17:57.247Z,11.13
2022-12-04T22:20:37.917Z,11.06
2022-12-04T22:23:10.266Z,11.02
2022-12-04T22:25:39.472Z,10.48
2022-12-04T22:28:24.718Z,10.58
2022-12-04T22:31:33.744Z,11.02
2022-12-04T22:35:06.611Z,11.15
2022-12-04T22:38:19.135Z,11.01
2022-12-04T22:41:01.730Z,11.02
2022-12-04T22:43:46.158Z,10.85
2022-12-04T22:46:36.790Z,10.87
2022-12-04T22:49:14.776Z,10.71
2022-12-04T22:51:50.817Z,10.59
2022-12-04T22:54:36.191Z,10.81
2022-12-04T22:57:14.146Z,11.00
2022-12-04T22:59:42.843Z,10.87
2022-12-04T23:02:10.531Z,10.78
2022-12-04T23:04:38.567Z,10.88
2022-12-04T23:07:06.250Z,10.97
2022-12-04T23:09:34.341Z,11.02
2022-12-04T23:12:02.032Z,11.29
2022-12-04T23:14:29.623Z,10.87
2022-12-04T23:16:57.191Z,10.69
2022-12-04T23:19:24.691Z,11.00
2022-12-04T23:21:56.829Z,11.34
2022-12-04T23:24:26.227Z,11.23
2022-12-04T23:26:53.832Z,11.06
2022-12-04T23:29:52.109Z,10.97
2022-12-04T23:32:08.901Z,11.23
2022-12-04T23:34:36.439Z,11.24
2022-12-04T23:37:04.002Z,11.07
2022-12-04T23:39:31.517Z,10.89
2022-12-04T23:41:59.007Z,11.03
2022-12-04T23:44:26.453Z,11.28
2022-12-04T23:46:53.962Z,10.92
2022-12-04T23:49:21.546Z,11.06
2022-12-04T23:51:49.052Z,10.86
2022-12-04T23:54:16.610Z,10.71
2022-12-04T23:56:44.174Z,10.69
2022-12-04T23:59:11.479Z,11.24
